Time;durP1;ratioP1;P1;durP2;ratioP2;P2;SDS_P1;SDS_P2;PMS_P1;PMS_P2;Temp;Humidity;BMP_temperature;BMP_pressure;BME280_temperature;BME280_humidity;BME280_pressure;Samples;Min_cycle;Max_cycle;Signal;HPM_P1;HPM_P2
2022/01/26 00:06:42;;;;;;;;;31.25;26.00;;;;;1.41;72.65;102678.03;4962035;28;45864;-63
2022/01/26 00:09:08;;;;;;;;;40.25;28.00;;;;;1.43;72.58;102676.25;4976355;28;45342;-62
2022/01/26 00:11:34;;;;;;;;;32.50;25.50;;;;;1.45;72.10;102679.69;4976549;28;45311;-63
2022/01/26 00:14:01;;;;;;;;;36.50;26.50;;;;;1.45;72.18;102674.50;4976661;28;45616;-60
2022/01/26 00:16:34;;;;;;;;;38.00;29.25;;;;;1.45;72.30;102677.09;4959272;28;46183;-63
2022/01/26 00:19:01;;;;;;;;;38.00;28.75;;;;;1.43;72.09;102686.63;4958675;28;46097;-61
2022/01/26 00:21:40;;;;;;;;;44.75;31.50;;;;;1.44;72.29;102691.75;4976217;28;45348;-62
2022/01/26 00:24:22;;;;;;;;;37.00;25.00;;;;;1.46;72.17;102696.94;4959087;28;45500;-64
2022/01/26 00:29:20;;;;;;;;;31.50;23.75;;;;;1.45;71.78;102695.22;4979798;28;45300;-61
2022/01/26 00:40:27;;;;;;;;;35.00;23.25;;;;;1.38;71.66;102699.63;4979498;28;45681;-62
2022/01/26 00:42:55;;;;;;;;;25.00;21.50;;;;;1.36;71.41;102697.94;4962032;28;45356;-62
2022/01/26 00:45:25;;;;;;;;;33.75;22.50;;;;;1.28;71.56;102693.72;4979447;28;45369;-62
2022/01/26 00:47:50;;;;;;;;;30.75;22.00;;;;;1.25;71.63;102701.53;4979349;28;46152;-62
2022/01/26 00:50:16;;;;;;;;;27.25;23.50;;;;;1.24;71.92;102699.84;4961463;28;45366;-62
2022/01/26 00:52:45;;;;;;;;;40.25;21.25;;;;;1.23;72.10;102700.72;4945722;28;45309;-60
2022/01/26 00:55:12;;;;;;;;;33.75;22.75;;;;;1.24;72.32;102699.00;4979193;28;45539;-64
2022/01/26 00:57:38;;;;;;;;;27.75;22.00;;;;;1.27;72.14;102686.84;4961597;28;45654;-62
2022/01/26 01:00:06;;;;;;;;;41.00;26.00;;;;;1.29;72.27;102687.69;4978884;28;45195;-62
2022/01/26 01:02:32;;;;;;;;;28.00;24.00;;;;;1.35;72.15;102694.50;4961853;28;45429;-62
2022/01/26 01:05:01;;;;;;;;;28.75;23.25;;;;;1.39;72.04;102695.31;4979112;28;45682;-61
2022/01/26 01:07:26;;;;;;;;;29.75;21.75;;;;;1.42;72.08;102690.09;4961896;28;46136;-64
2022/01/26 01:09:52;;;;;;;;;33.25;22.25;;;;;1.47;71.91;102690.88;4978987;28;45486;-63
2022/01/26 01:12:17;;;;;;;;;25.50;19.00;;;;;1.51;71.93;102694.25;4979181;28;45333;-63
2022/01/26 01:14:44;;;;;;;;;28.50;20.00;;;;;1.53;72.06;102683.00;4960920;28;60295;-62
2022/01/26 01:17:20;;;;;;;;;27.25;21.25;;;;;1.58;71.77;102686.38;4978647;28;45597;-63
2022/01/26 01:20:02;;;;;;;;;28.25;24.50;;;;;1.63;71.50;102689.75;4961233;28;45766;-61
2022/01/26 01:30:09;;;;;;;;;28.50;23.75;;;;;1.74;71.14;102683.53;4978658;28;45341;-62
2022/01/26 01:32:50;;;;;;;;;28.00;22.00;;;;;1.80;71.01;102692.97;4979028;28;45335;-62
2022/01/26 01:35:15;;;;;;;;;27.75;22.75;;;;;1.81;70.90;102689.47;4961187;28;45511;-62
2022/01/26 01:37:41;;;;;;;;;29.25;23.25;;;;;1.82;71.12;102684.25;4977627;28;62177;-62
2022/01/26 01:40:06;;;;;;;;;34.25;22.00;;;;;1.84;70.86;102685.09;4978487;28;45512;-62
2022/01/26 01:42:32;;;;;;;;;27.00;24.25;;;;;1.86;70.79;102683.31;4978615;28;45379;-61
2022/01/26 01:44:57;;;;;;;;;38.75;26.00;;;;;1.85;70.82;102689.41;4978069;28;57371;-63
2022/01/26 01:47:23;;;;;;;;;34.00;25.00;;;;;1.85;71.04;102692.00;4978384;28;45354;-63
2022/01/26 01:49:48;;;;;;;;;29.50;25.00;;;;;1.86;70.96;102691.09;4960738;28;45267;-63
2022/01/26 01:52:15;;;;;;;;;31.75;25.75;;;;;1.89;70.74;102696.25;4978249;28;45338;-62
2022/01/26 01:54:44;;;;;;;;;33.00;23.00;;;;;1.90;71.00;102687.59;4960948;28;45601;-63
2022/01/26 01:57:10;;;;;;;;;35.75;23.75;;;;;1.93;70.93;102697.91;4961257;28;46301;-62
2022/01/26 01:59:35;;;;;;;;;33.00;25.50;;;;;1.96;71.10;102699.56;4960383;28;58443;-62
2022/01/26 02:02:01;;;;;;;;;35.00;23.75;;;;;1.98;71.03;102697.81;4960845;28;45264;-61
2022/01/26 02:04:26;;;;;;;;;42.50;23.50;;;;;2.00;71.19;102703.81;4960812;28;45359;-62
2022/01/26 02:06:51;;;;;;;;;34.50;25.00;;;;;2.03;71.03;102697.75;4944585;28;46410;-62
2022/01/26 02:09:17;;;;;;;;;33.75;25.25;;;;;2.06;70.81;102692.50;4977268;28;68667;-61
2022/01/26 02:11:53;;;;;;;;;27.25;19.50;;;;;2.07;70.86;102694.22;4978396;28;45282;-61
2022/01/26 02:55:32;;;;;;;;;32.50;25.00;;;;;2.30;70.55;102705.91;4977449;28;45458;-62
2022/01/26 03:03:15;;;;;;;;;35.50;26.25;;;;;2.34;70.42;102687.66;4960253;28;45900;-61
2022/01/26 03:05:50;;;;;;;;;37.50;26.25;;;;;2.34;70.35;102684.19;4960856;28;45389;-62
2022/01/26 03:08:15;;;;;;;;;32.00;24.50;;;;;2.36;70.38;102682.44;4977532;28;45284;-61
2022/01/26 03:10:52;;;;;;;;;51.25;25.25;;;;;2.37;70.39;102678.94;4959641;28;46126;-62
2022/01/26 03:13:23;;;;;;;;;31.50;25.50;;;;;2.40;70.55;102675.44;4959762;28;45825;-62
2022/01/26 03:15:57;;;;;;;;;35.75;25.25;;;;;2.40;70.20;102678.91;4977286;28;45272;-62
2022/01/26 03:21:09;;;;;;;;;30.50;27.25;;;;;2.43;70.14;102673.66;4962270;28;45413;-63
2022/01/26 03:32:49;;;;;;;;;36.00;27.50;;;;;2.49;70.08;102678.72;4976981;28;45404;-62
2022/01/26 03:34:35;;;;;;;;;35.00;26.50;;;;;2.52;70.41;102673.47;4973634;28;45906;-60
2022/01/26 03:37:06;;;;;;;;;35.00;27.00;;;;;2.54;70.39;102670.84;4977063;28;45537;-62
2022/01/26 03:39:40;;;;;;;;;46.75;33.00;;;;;2.54;70.52;102662.22;4976856;28;45294;-61
2022/01/26 03:42:07;;;;;;;;;41.50;32.25;;;;;2.56;69.95;102661.28;4960501;28;46263;-61
2022/01/26 03:44:33;;;;;;;;;36.75;27.75;;;;;2.57;70.07;102656.97;4976721;28;45362;-60
2022/01/26 03:46:58;;;;;;;;;39.75;29.50;;;;;2.58;70.12;102663.84;4958822;28;59438;-62
2022/01/26 03:49:24;;;;;;;;;35.50;24.25;;;;;2.59;70.13;102665.56;4959272;28;45397;-63
2022/01/26 03:51:49;;;;;;;;;40.75;22.75;;;;;2.60;70.17;102672.47;4959200;28;46558;-63
2022/01/26 03:54:16;;;;;;;;;37.75;26.75;;;;;2.63;70.11;102670.66;4942623;28;51183;-62
2022/01/26 03:56:42;;;;;;;;;28.25;25.50;;;;;2.66;70.02;102673.19;4976832;28;45260;-63
2022/01/26 03:59:07;;;;;;;;;41.75;30.00;;;;;2.68;69.92;102665.34;4977144;28;45530;-63
2022/01/26 04:01:33;;;;;;;;;43.25;33.25;;;;;2.70;69.95;102675.72;4980045;28;45466;-61
2022/01/26 04:03:59;;;;;;;;;37.75;26.25;;;;;2.70;69.87;102673.97;4962706;28;45378;-63
2022/01/26 04:06:25;;;;;;;;;33.50;26.75;;;;;2.69;69.72;102674.00;4962793;28;45368;-63
2022/01/26 04:08:50;;;;;;;;;45.25;29.50;;;;;2.67;70.01;102661.91;4962691;28;45326;-61
2022/01/26 04:13:51;;;;;;;;;34.50;29.25;;;;;2.67;69.66;102667.09;4980025;28;45399;-62
2022/01/26 04:16:16;;;;;;;;;43.25;26.75;;;;;2.67;69.79;102663.63;4980051;28;45330;-63
2022/01/26 04:18:42;;;;;;;;;38.75;28.50;;;;;2.63;69.98;102662.03;4979923;28;45274;-62
2022/01/26 04:21:18;;;;;;;;;35.25;26.25;;;;;2.63;70.16;102657.66;4979715;28;45404;-62
2022/01/26 04:26:34;;;;;;;;;40.00;28.75;;;;;2.65;70.21;102657.66;4979977;28;45374;-63
2022/01/26 04:29:05;;;;;;;;;42.75;29.75;;;;;2.64;69.95;102663.72;4979679;28;45529;-62
2022/01/26 04:31:31;;;;;;;;;35.75;26.50;;;;;2.65;69.87;102665.44;4979735;28;45283;-63
2022/01/26 04:33:56;;;;;;;;;40.75;26.75;;;;;2.65;69.96;102663.69;4961384;28;63919;-62
2022/01/26 04:36:28;;;;;;;;;43.25;32.25;;;;;2.67;69.96;102658.44;4979002;28;57968;-62
2022/01/26 04:38:58;;;;;;;;;37.50;25.00;;;;;2.66;69.89;102643.75;4947914;28;45391;-62
2022/01/26 04:43:52;;;;;;;;;40.00;29.25;;;;;2.61;70.35;102649.06;4962162;28;45435;-63
2022/01/26 04:46:18;;;;;;;;;42.25;28.50;;;;;2.61;70.45;102651.66;4979548;28;45283;-62
2022/01/26 04:48:43;;;;;;;;;33.00;26.50;;;;;2.64;70.46;102651.59;4979430;28;45228;-63
2022/01/26 04:51:09;;;;;;;;;40.75;30.50;;;;;2.66;70.34;102646.34;4960721;28;74210;-62
2022/01/26 04:53:34;;;;;;;;;34.50;28.50;;;;;2.68;70.25;102649.78;4978341;28;67623;-62
2022/01/26 04:55:59;;;;;;;;;36.25;31.75;;;;;2.70;70.15;102645.41;4961023;28;65755;-64
2022/01/26 04:58:25;;;;;;;;;44.50;31.25;;;;;2.71;70.13;102649.72;4979347;28;45237;-62
2022/01/26 05:00:50;;;;;;;;;40.00;32.50;;;;;2.72;69.78;102640.19;4979060;28;45287;-61
2022/01/26 05:03:16;;;;;;;;;54.00;38.00;;;;;2.72;69.84;102641.03;4978997;28;45236;-62
2022/01/26 05:05:41;;;;;;;;;45.75;37.00;;;;;2.74;69.95;102646.22;4960757;28;63805;-62
2022/01/26 05:08:06;;;;;;;;;42.25;36.50;;;;;2.71;69.90;102649.72;4979254;28;45168;-62
2022/01/26 05:10:32;;;;;;;;;52.00;38.50;;;;;2.73;69.72;102647.94;4977886;28;70903;-62
2022/01/26 05:12:57;;;;;;;;;61.50;44.25;;;;;2.73;69.65;102653.13;4978413;28;45936;-62
2022/01/26 05:15:25;;;;;;;;;57.00;41.75;;;;;2.73;69.87;102653.13;4961609;28;45402;-63
2022/01/26 05:17:50;;;;;;;;;59.25;38.50;;;;;2.73;69.85;102652.28;4978999;28;45577;-62
2022/01/26 05:20:15;;;;;;;;;53.75;36.50;;;;;2.72;69.88;102656.63;4961243;28;45446;-64
2022/01/26 05:22:43;;;;;;;;;51.00;35.25;;;;;2.72;69.97;102655.78;4978832;28;45298;-62
2022/01/26 05:25:09;;;;;;;;;41.75;35.00;;;;;2.72;69.74;102656.63;4961407;28;45356;-63
2022/01/26 05:27:34;;;;;;;;;51.75;38.25;;;;;2.74;69.69;102648.81;4978257;28;45522;-62
2022/01/26 05:30:00;;;;;;;;;45.50;36.75;;;;;2.76;69.37;102655.66;4977847;28;68703;-62
2022/01/26 05:32:26;;;;;;;;;48.50;33.50;;;;;2.73;69.69;102650.53;4978657;28;45376;-62
2022/01/26 05:34:51;;;;;;;;;53.50;37.50;;;;;2.74;70.00;102644.47;4978775;28;45272;-62
2022/01/26 05:37:17;;;;;;;;;50.50;38.75;;;;;2.76;69.67;102634.91;4961604;28;45300;-61
2022/01/26 05:39:42;;;;;;;;;50.75;35.25;;;;;2.76;69.96;102629.69;4977869;28;64144;-62
2022/01/26 05:42:08;;;;;;;;;49.25;39.50;;;;;2.74;69.96;102633.22;4961139;28;45280;-63
2022/01/26 05:44:33;;;;;;;;;45.50;36.25;;;;;2.73;70.02;102634.97;4978643;28;45355;-63
2022/01/26 05:46:59;;;;;;;;;54.00;39.25;;;;;2.72;70.08;102630.66;4978538;28;45307;-62
2022/01/26 05:49:25;;;;;;;;;59.75;39.25;;;;;2.72;69.89;102637.59;4978239;28;46408;-63
2022/01/26 05:51:51;;;;;;;;;55.50;41.00;;;;;2.70;69.90;102631.59;4960506;28;45814;-62
2022/01/26 05:54:16;;;;;;;;;53.50;38.25;;;;;2.71;70.20;102630.69;4978180;28;45457;-62
2022/01/26 05:56:43;;;;;;;;;61.75;39.75;;;;;2.74;70.29;102633.22;4960292;28;64873;-62
2022/01/26 05:59:09;;;;;;;;;50.25;35.25;;;;;2.76;70.05;102640.09;4978206;28;46449;-60
2022/01/26 06:01:34;;;;;;;;;45.50;37.00;;;;;2.78;69.96;102634.88;4960862;28;45499;-62
2022/01/26 06:04:00;;;;;;;;;40.50;36.25;;;;;2.80;69.51;102633.94;4978167;28;45420;-61
2022/01/26 06:06:25;;;;;;;;;47.50;37.50;;;;;2.78;69.64;102648.69;4977375;28;66876;-62
2022/01/26 06:08:50;;;;;;;;;46.00;35.75;;;;;2.78;69.50;102646.09;4976951;28;70086;-62
2022/01/26 06:11:16;;;;;;;;;50.00;39.00;;;;;2.78;69.38;102650.47;4959609;28;69017;-63
2022/01/26 06:13:41;;;;;;;;;57.75;37.75;;;;;2.77;69.46;102652.19;4977280;28;61413;-62
2022/01/26 06:16:07;;;;;;;;;50.50;38.75;;;;;2.74;70.01;102649.66;4959830;28;50206;-62
2022/01/26 06:18:32;;;;;;;;;62.00;40.00;;;;;2.73;69.46;102653.13;4977792;28;46558;-62
2022/01/26 06:20:58;;;;;;;;;49.00;34.00;;;;;2.76;69.76;102660.03;4976969;28;64615;-62
2022/01/26 06:23:25;;;;;;;;;57.25;41.00;;;;;2.76;70.02;102671.25;4975976;28;62090;-62
2022/01/26 06:25:55;;;;;;;;;51.00;37.50;;;;;2.75;70.05;102679.06;4977881;28;45539;-61
2022/01/26 06:28:21;;;;;;;;;56.25;38.00;;;;;2.77;70.04;102679.91;4961010;28;45328;-62
2022/01/26 06:30:47;;;;;;;;;45.50;36.00;;;;;2.77;69.64;102698.91;4977910;28;45216;-61
2022/01/26 06:33:12;;;;;;;;;57.00;40.00;;;;;2.78;69.86;102685.03;4960577;28;45322;-63
2022/01/26 06:35:38;;;;;;;;;47.25;36.75;;;;;2.80;69.77;102691.06;4977075;28;55304;-62
2022/01/26 06:38:03;;;;;;;;;57.00;40.25;;;;;2.80;69.43;102698.84;4959976;28;45513;-62
2022/01/26 06:40:29;;;;;;;;;53.25;40.75;;;;;2.81;69.50;102699.72;4976773;28;58766;-62
2022/01/26 06:42:59;;;;;;;;;60.75;43.50;;;;;2.80;69.18;102701.44;4977802;28;45320;-62
2022/01/26 06:45:27;;;;;;;;;61.50;43.25;;;;;2.77;69.37;102711.06;4944492;28;45223;-62
2022/01/26 06:48:27;;;;;;;;;63.75;46.75;;;;;2.79;69.38;102715.31;4960330;28;45640;-62
2022/01/26 06:50:43;;;;;;;;;59.00;43.25;;;;;2.82;69.53;102715.25;4950541;28;45786;-62
2022/01/26 06:53:09;;;;;;;;;60.75;43.50;;;;;2.81;69.16;102710.94;4958888;28;59030;-64
2022/01/26 06:55:35;;;;;;;;;54.00;42.25;;;;;2.81;69.85;102713.53;4959816;28;45528;-62
2022/01/26 06:58:01;;;;;;;;;70.25;48.00;;;;;2.82;69.77;102706.63;4977144;28;45270;-62
2022/01/26 07:00:26;;;;;;;;;62.50;41.25;;;;;2.82;69.80;102714.41;4976059;28;68357;-62
2022/01/26 07:02:54;;;;;;;;;60.00;44.00;;;;;2.81;69.91;102718.72;4977212;28;45792;-61
2022/01/26 07:05:19;;;;;;;;;63.75;45.50;;;;;2.82;69.96;102725.63;4977152;28;45569;-61
2022/01/26 07:07:45;;;;;;;;;56.75;41.25;;;;;2.82;69.70;102717.84;4959216;28;58745;-62
2022/01/26 07:10:10;;;;;;;;;58.25;44.00;;;;;2.82;69.93;102709.22;4976405;28;54608;-61
2022/01/26 07:12:36;;;;;;;;;62.25;42.75;;;;;2.82;70.02;102710.06;4976966;28;45663;-62
2022/01/26 07:23:13;;;;;;;;;62.75;43.25;;;;;2.76;70.21;102693.75;4977195;28;45315;-62
2022/01/26 07:25:39;;;;;;;;;60.75;43.00;;;;;2.77;69.94;102709.28;4977078;28;45472;-61
2022/01/26 07:28:05;;;;;;;;;60.00;45.75;;;;;2.76;70.36;102704.16;4958457;28;64528;-62
2022/01/26 07:30:31;;;;;;;;;51.50;41.25;;;;;2.74;70.46;102709.34;4943273;28;45724;-62
2022/01/26 07:32:56;;;;;;;;;60.50;41.50;;;;;2.77;70.52;102718.84;4959503;28;45505;-61
2022/01/26 07:35:22;;;;;;;;;56.75;40.25;;;;;2.77;70.44;102718.84;4975862;28;53826;-62
2022/01/26 07:37:48;;;;;;;;;64.75;47.50;;;;;2.78;70.65;102720.56;4976231;28;59351;-62
2022/01/26 07:40:13;;;;;;;;;59.50;43.00;;;;;2.77;70.26;102711.88;4976268;28;45297;-61
2022/01/26 07:42:39;;;;;;;;;61.75;44.50;;;;;2.77;70.32;102706.69;4959326;28;45288;-62
2022/01/26 07:45:05;;;;;;;;;66.75;47.75;;;;;2.74;70.70;102704.16;4976766;28;45564;-61
2022/01/26 07:47:32;;;;;;;;;62.25;40.25;;;;;2.77;70.56;102722.28;4976377;28;45247;-61
2022/01/26 07:50:01;;;;;;;;;65.00;43.50;;;;;2.79;70.61;102719.66;4976358;28;45682;-63
2022/01/26 07:52:29;;;;;;;;;65.00;41.50;;;;;2.80;70.63;102722.22;4942677;28;45255;-62
2022/01/26 07:54:54;;;;;;;;;66.50;47.75;;;;;2.80;70.76;102726.56;4976335;28;45281;-64
2022/01/26 07:57:20;;;;;;;;;68.50;50.00;;;;;2.77;70.81;102722.28;4976507;28;45476;-63
2022/01/26 07:59:46;;;;;;;;;65.25;46.75;;;;;2.80;70.68;102727.41;4942707;28;45309;-63
2022/01/26 08:02:11;;;;;;;;;69.00;49.50;;;;;2.79;70.87;102738.69;4976444;28;45381;-63
2022/01/26 08:04:36;;;;;;;;;63.75;46.75;;;;;2.81;70.56;102731.72;4975913;28;64239;-61
2022/01/26 08:07:02;;;;;;;;;61.00;46.50;;;;;2.81;71.00;102718.72;4975925;28;57954;-62
2022/01/26 08:09:27;;;;;;;;;59.75;43.50;;;;;2.81;70.86;102705.75;4958611;28;45357;-62
2022/01/26 08:11:53;;;;;;;;;62.50;45.25;;;;;2.82;70.77;102704.88;4958129;28;64113;-62
2022/01/26 08:14:19;;;;;;;;;57.00;42.50;;;;;2.81;70.77;102705.75;4958124;28;66272;-62
2022/01/26 08:16:44;;;;;;;;;59.25;44.00;;;;;2.84;70.68;102710.03;4975867;28;45377;-62
2022/01/26 08:19:10;;;;;;;;;56.50;41.25;;;;;2.87;70.87;102703.91;4976308;28;45454;-64
2022/01/26 08:21:35;;;;;;;;;57.50;41.75;;;;;2.87;71.00;102706.50;4958838;28;45390;-62
2022/01/26 08:24:12;;;;;;;;;56.25;42.50;;;;;2.89;70.83;102695.22;4958677;28;45316;-63
2022/01/26 08:26:41;;;;;;;;;60.75;43.25;;;;;2.88;70.53;102692.66;4944045;28;47380;-61
2022/01/26 08:29:16;;;;;;;;;65.00;45.25;;;;;2.91;70.92;102710.75;4959283;28;45421;-61
2022/01/26 08:31:42;;;;;;;;;60.00;40.25;;;;;2.93;70.60;102711.59;4958706;28;45271;-63
2022/01/26 08:34:07;;;;;;;;;69.25;44.75;;;;;2.93;70.44;102702.03;4976148;28;45269;-62
2022/01/26 08:36:33;;;;;;;;;66.25;47.00;;;;;2.95;70.58;102702.03;4975095;28;68874;-62
2022/01/26 08:38:58;;;;;;;;;59.75;43.00;;;;;2.97;70.31;102688.09;4975728;28;45470;-63
2022/01/26 08:41:23;;;;;;;;;61.00;42.50;;;;;3.00;70.84;102697.59;4975118;28;63988;-63
2022/01/26 08:43:49;;;;;;;;;62.75;46.00;;;;;3.04;70.63;102722.59;4976060;28;45657;-64
2022/01/26 08:46:17;;;;;;;;;64.00;44.75;;;;;3.07;70.61;102713.88;4957745;28;72240;-63
2022/01/26 08:48:42;;;;;;;;;69.75;46.25;;;;;3.12;70.41;102717.22;4961905;28;45466;-63
2022/01/26 08:51:08;;;;;;;;;60.75;45.00;;;;;3.10;70.68;102719.88;4978336;28;63079;-62
2022/01/26 08:53:33;;;;;;;;;61.50;41.25;;;;;3.11;70.46;102721.59;4978159;28;63878;-63
2022/01/26 08:55:59;;;;;;;;;59.25;45.00;;;;;3.12;70.64;102732.81;4978094;28;71413;-62
2022/01/26 08:58:24;;;;;;;;;61.50;45.25;;;;;3.13;70.72;102736.28;4978457;28;61076;-62
2022/01/26 09:00:49;;;;;;;;;68.00;49.00;;;;;3.16;70.53;102731.03;4961834;28;45822;-62
2022/01/26 09:03:15;;;;;;;;;62.50;46.00;;;;;3.16;70.40;102729.25;4961627;28;45656;-62
2022/01/26 09:05:40;;;;;;;;;60.75;45.75;;;;;3.17;70.66;102718.00;4978844;28;45361;-64
2022/01/26 09:08:06;;;;;;;;;62.00;43.50;;;;;3.18;70.52;102721.47;4977877;28;70515;-61
2022/01/26 09:10:33;;;;;;;;;72.00;49.00;;;;;3.19;70.56;102743.91;4978730;28;45249;-62
2022/01/26 09:12:59;;;;;;;;;68.75;52.00;;;;;3.21;70.39;102740.41;4978949;28;45476;-62
2022/01/26 09:15:28;;;;;;;;;66.75;48.00;;;;;3.22;70.58;102751.66;4961233;28;45434;-62
2022/01/26 09:17:55;;;;;;;;;62.75;46.75;;;;;3.24;70.98;102768.06;4978754;28;45265;-64
2022/01/26 09:20:20;;;;;;;;;71.75;51.50;;;;;3.27;70.85;102773.19;4978935;28;45253;-63
2022/01/26 09:22:46;;;;;;;;;75.50;55.00;;;;;3.29;70.74;102766.22;4961378;28;45188;-63
2022/01/26 09:25:11;;;;;;;;;79.50;55.00;;;;;3.29;70.40;102766.22;4976584;28;72901;-62
2022/01/26 09:27:37;;;;;;;;;72.75;51.75;;;;;3.32;70.82;102767.91;4993107;28;45555;-63
2022/01/26 09:30:03;;;;;;;;;73.25;55.25;;;;;3.35;70.36;102770.44;4980773;28;45736;-63
2022/01/26 09:32:29;;;;;;;;;70.25;53.25;;;;;3.37;70.04;102774.72;4980335;28;45601;-62
2022/01/26 09:34:54;;;;;;;;;83.50;58.50;;;;;3.40;70.33;102768.59;4979930;28;59634;-63
2022/01/26 09:37:20;;;;;;;;;77.50;57.00;;;;;3.42;70.32;102759.03;4998217;28;45334;-62
2022/01/26 09:39:46;;;;;;;;;75.25;56.50;;;;;3.45;69.62;102760.69;4997405;28;65783;-61
2022/01/26 09:42:11;;;;;;;;;72.25;53.50;;;;;3.44;69.40;102761.56;4998405;28;45432;-62
2022/01/26 09:44:37;;;;;;;;;80.25;58.00;;;;;3.45;69.64;102768.50;4998241;28;45426;-62
2022/01/26 09:47:03;;;;;;;;;79.00;56.25;;;;;3.47;70.16;102777.09;4980498;28;45286;-63
2022/01/26 09:49:32;;;;;;;;;75.50;57.25;;;;;3.48;69.72;102779.66;4980697;28;45412;-62
2022/01/26 09:52:13;;;;;;;;;72.75;54.50;;;;;3.50;69.71;102777.03;4980903;28;45529;-61
2022/01/26 09:54:39;;;;;;;;;78.50;56.25;;;;;3.51;70.10;102778.75;4981193;28;46512;-63
2022/01/26 09:57:05;;;;;;;;;75.00;57.00;;;;;3.52;70.11;102788.25;4997563;28;48344;-62
2022/01/26 09:59:31;;;;;;;;;85.50;60.25;;;;;3.51;70.26;102797.78;4998189;28;45513;-63
2022/01/26 10:01:56;;;;;;;;;79.00;60.50;;;;;3.50;70.35;102790.88;4998002;28;45171;-63
2022/01/26 10:04:24;;;;;;;;;79.00;58.50;;;;;3.54;70.51;102778.69;4997388;28;46122;-63
2022/01/26 10:17:35;;;;;;;;;75.75;56.25;;;;;3.63;69.85;102772.41;4982714;28;45218;-61
2022/01/26 10:20:03;;;;;;;;;78.75;59.00;;;;;3.65;70.08;102789.69;4997621;28;45250;-62
2022/01/26 10:22:30;;;;;;;;;76.50;55.25;;;;;3.69;70.06;102795.66;4997547;28;45358;-62
2022/01/26 10:25:10;;;;;;;;;75.00;56.75;;;;;3.70;69.92;102800.84;4979935;28;45357;-61
2022/01/26 10:27:46;;;;;;;;;74.50;53.50;;;;;3.75;69.88;102779.06;4980295;28;45257;-63
2022/01/26 10:30:12;;;;;;;;;73.75;53.25;;;;;3.77;69.83;102775.53;4980200;28;45451;-64
2022/01/26 10:32:39;;;;;;;;;71.00;53.75;;;;;3.77;70.10;102765.16;4980078;28;45309;-64
2022/01/26 10:35:05;;;;;;;;;72.75;51.75;;;;;3.79;69.77;102770.28;4979554;28;45467;-63
2022/01/26 10:37:31;;;;;;;;;66.00;49.75;;;;;3.81;69.86;102799.72;4996998;28;45456;-62
2022/01/26 10:40:15;;;;;;;;;69.50;50.75;;;;;3.85;69.29;102790.97;4997094;28;45424;-62
2022/01/26 10:42:59;;;;;;;;;64.75;48.25;;;;;3.87;69.72;102770.97;4997220;28;45327;-62
2022/01/26 10:45:44;;;;;;;;;65.75;53.00;;;;;3.86;69.38;102774.47;4997225;28;45559;-63
2022/01/26 10:48:41;;;;;;;;;67.00;46.75;;;;;3.91;69.73;102775.22;4980803;28;45811;-62
2022/01/26 10:53:51;;;;;;;;;63.25;45.00;;;;;3.97;69.18;102774.22;4997052;28;45316;-62
2022/01/26 10:56:16;;;;;;;;;63.00;43.75;;;;;4.00;69.34;102774.13;4963703;28;45422;-63
2022/01/26 10:58:42;;;;;;;;;59.50;44.50;;;;;4.03;69.47;102773.22;4996924;28;45369;-62
2022/01/26 11:01:07;;;;;;;;;57.50;40.25;;;;;4.06;69.27;102762.72;4997051;28;45400;-62
2022/01/26 11:03:36;;;;;;;;;57.25;39.75;;;;;4.08;69.51;102750.53;4996858;28;45342;-62
2022/01/26 11:06:05;;;;;;;;;61.75;43.25;;;;;4.09;69.47;102757.44;4979270;28;45538;-62
2022/01/26 11:08:30;;;;;;;;;62.75;43.50;;;;;4.10;69.09;102762.59;4996425;28;45816;-63
2022/01/26 11:10:56;;;;;;;;;62.75;45.75;;;;;4.12;69.05;102762.56;4961925;28;51546;-63
2022/01/26 11:13:30;;;;;;;;;60.00;46.25;;;;;4.14;68.95;102763.41;4979228;28;45610;-62
2022/01/26 11:16:10;;;;;;;;;63.75;44.25;;;;;4.16;68.84;102751.19;4996417;28;45302;-62
2022/01/26 11:18:46;;;;;;;;;58.50;42.75;;;;;4.17;69.02;102734.69;4996459;28;45798;-62
2022/01/26 11:21:16;;;;;;;;;52.00;42.50;;;;;4.20;69.08;102732.00;4979197;28;45336;-62
2022/01/26 11:23:41;;;;;;;;;62.25;41.50;;;;;4.22;68.83;102731.97;4979485;28;45579;-61
2022/01/26 11:26:06;;;;;;;;;56.25;41.00;;;;;4.23;68.82;102737.13;4996427;28;45459;-62
2022/01/26 11:28:32;;;;;;;;;59.50;43.50;;;;;4.26;68.29;102744.84;4978669;28;45345;-62
2022/01/26 11:31:03;;;;;;;;;69.25;48.75;;;;;4.27;68.53;102738.75;4996564;28;45618;-62
2022/01/26 11:33:30;;;;;;;;;71.00;50.00;;;;;4.29;68.28;102736.94;4979673;28;45284;-62
2022/01/26 11:35:57;;;;;;;;;62.50;47.00;;;;;4.30;68.57;102730.00;4962538;28;45515;-62
2022/01/26 11:46:55;;;;;;;;;71.50;51.00;;;;;4.43;67.48;102715.78;4981316;28;45305;-62
2022/01/26 11:49:25;;;;;;;;;64.50;50.00;;;;;4.43;67.57;102707.09;4978617;28;45406;-62
2022/01/26 11:51:53;;;;;;;;;75.00;52.50;;;;;4.45;68.00;102694.91;4996403;28;45489;-62
2022/01/26 11:54:20;;;;;;;;;67.50;50.50;;;;;4.47;67.65;102697.47;4962856;28;45694;-62
2022/01/26 11:56:56;;;;;;;;;66.00;48.25;;;;;4.48;67.63;102692.22;4962276;28;48148;-62
2022/01/26 11:59:23;;;;;;;;;69.75;52.00;;;;;4.49;67.34;102693.09;4995275;28;45415;-62
2022/01/26 12:01:57;;;;;;;;;71.75;53.50;;;;;4.50;67.67;102685.22;4996300;28;45314;-62
2022/01/26 12:04:24;;;;;;;;;80.25;58.50;;;;;4.53;67.47;102690.34;4995959;28;45433;-62
2022/01/26 12:06:57;;;;;;;;;67.00;49.00;;;;;4.57;67.52;102678.06;4995928;28;46354;-62
2022/01/26 12:09:23;;;;;;;;;79.00;57.00;;;;;4.60;67.32;102680.59;4979522;28;45676;-64
2022/01/26 12:11:52;;;;;;;;;75.25;55.50;;;;;4.63;67.00;102690.06;4996111;28;45413;-62
2022/01/26 12:14:20;;;;;;;;;75.25;52.50;;;;;4.63;67.05;102698.72;4962368;28;45311;-62
2022/01/26 12:16:48;;;;;;;;;68.00;49.25;;;;;4.65;67.17;102696.09;4978214;28;47980;-62
2022/01/26 12:41:29;;;;;;;;;70.50;49.00;;;;;4.77;66.98;102674.88;4983033;28;45275;-63
2022/01/26 12:43:59;;;;;;;;;74.25;54.00;;;;;4.79;66.64;102686.09;4984980;28;45422;-63
2022/01/26 12:46:28;;;;;;;;;71.75;51.00;;;;;4.80;66.58;102689.59;4965501;28;45242;-62
2022/01/26 12:48:59;;;;;;;;;66.00;50.50;;;;;4.79;66.47;102691.31;4981119;28;46416;-62
2022/01/26 12:51:40;;;;;;;;;71.50;53.25;;;;;4.80;66.21;102681.78;4965169;28;45284;-64
2022/01/26 12:54:06;;;;;;;;;70.25;51.50;;;;;4.77;66.53;102672.28;4945478;28;45390;-62
2022/01/26 12:56:32;;;;;;;;;65.75;52.00;;;;;4.80;66.60;102659.16;4979178;28;45624;-62
2022/01/26 12:59:08;;;;;;;;;72.25;55.25;;;;;4.82;66.10;102665.19;4961193;28;46519;-63
2022/01/26 13:01:37;;;;;;;;;74.75;52.50;;;;;4.81;66.37;102663.47;4979072;28;46849;-62
2022/01/26 13:04:04;;;;;;;;;74.25;53.50;;;;;4.84;66.20;102652.13;4979125;28;45395;-62
2022/01/26 13:06:37;;;;;;;;;79.50;54.50;;;;;4.84;66.31;102650.38;4978632;28;45356;-62
2022/01/26 13:09:16;;;;;;;;;67.75;51.00;;;;;4.86;66.23;102643.34;4978918;28;46223;-62
2022/01/26 13:11:55;;;;;;;;;86.50;59.00;;;;;4.88;66.07;102649.38;4979186;28;45278;-61
2022/01/26 13:14:30;;;;;;;;;79.25;52.75;;;;;4.89;66.39;102656.28;4979003;28;45466;-64
2022/01/26 13:17:16;;;;;;;;;71.00;54.25;;;;;4.90;65.97;102660.59;4978948;28;45283;-63
2022/01/26 13:20:13;;;;;;;;;66.25;50.00;;;;;4.92;66.29;102657.97;4977758;28;46531;-62
2022/01/26 13:23:02;;;;;;;;;66.25;50.00;;;;;4.95;66.06;102664.81;4978522;28;45386;-62
2022/01/26 13:28:30;;;;;;;;;62.75;47.75;;;;;4.98;65.89;102655.19;4979007;28;45360;-63
2022/01/26 13:36:55;;;;;;;;;69.00;50.75;;;;;5.03;66.19;102655.03;4963705;28;45322;-63
2022/01/26 13:44:45;;;;;;;;;71.75;50.75;;;;;5.05;66.12;102656.66;4978018;28;45340;-62
2022/01/26 13:58:19;;;;;;;;;74.00;53.75;;;;;5.13;65.91;102645.16;4969718;28;45325;-62
2022/01/26 14:00:53;;;;;;;;;72.25;53.25;;;;;5.13;66.00;102640.81;4967054;28;45232;-62
2022/01/26 14:03:21;;;;;;;;;69.25;49.75;;;;;5.15;66.11;102640.75;4980163;28;46809;-63
2022/01/26 14:05:47;;;;;;;;;64.50;49.00;;;;;5.18;65.98;102631.09;4980389;28;45449;-62
2022/01/26 14:08:12;;;;;;;;;74.75;52.50;;;;;5.18;66.11;102631.09;4947587;28;45305;-63